Time;durP1;ratioP1;P1;durP2;ratioP2;P2;SDS_P1;SDS_P2;PMS_P1;PMS_P2;Temp;Humidity;BMP_temperature;BMP_pressure;BME280_temperature;BME280_humidity;BME280_pressure;Samples;Min_cycle;Max_cycle;Signal;HPM_P1;HPM_P2
2023/08/16 00:02:03;;;;;;;1.35;0.70;;;19.60;80.90;;;;;;5014491;28;20513;-86
2023/08/16 00:04:29;;;;;;;1.70;0.80;;;19.50;81.00;;;;;;4998144;28;20033;-79
2023/08/16 00:06:54;;;;;;;4.32;1.05;;;19.50;81.20;;;;;;5014174;28;20025;-79
2023/08/16 00:09:20;;;;;;;3.13;0.75;;;19.50;81.40;;;;;;4998182;28;20029;-86
2023/08/16 00:11:46;;;;;;;1.92;0.77;;;19.50;81.50;;;;;;5014174;28;20052;-86
2023/08/16 00:14:12;;;;;;;2.80;0.70;;;19.40;81.50;;;;;;4998132;28;20018;-86
2023/08/16 00:16:38;;;;;;;3.28;0.65;;;19.40;81.80;;;;;;4997903;28;20152;-79
2023/08/16 00:19:03;;;;;;;2.75;0.80;;;19.40;81.90;;;;;;4998248;28;20397;-87
2023/08/16 00:21:29;;;;;;;4.15;0.80;;;19.30;82.30;;;;;;5014108;28;20030;-79
2023/08/16 00:23:55;;;;;;;3.83;0.70;;;19.30;82.50;;;;;;4997740;28;20034;-79
2023/08/16 00:26:20;;;;;;;2.03;0.65;;;19.20;82.40;;;;;;5015161;28;20025;-86
2023/08/16 00:28:48;;;;;;;3.10;0.70;;;19.20;82.40;;;;;;5013796;28;20030;-86
2023/08/16 00:31:14;;;;;;;2.22;0.80;;;19.10;82.30;;;;;;5013917;28;20018;-86
2023/08/16 00:33:40;;;;;;;3.72;0.93;;;19.10;82.30;;;;;;5013986;28;20022;-86
2023/08/16 00:36:07;;;;;;;2.78;0.68;;;19.00;82.40;;;;;;5014215;28;20501;-86
2023/08/16 00:38:33;;;;;;;3.58;0.88;;;19.00;82.50;;;;;;5015112;28;20092;-86
2023/08/16 00:40:59;;;;;;;3.63;0.70;;;18.90;82.60;;;;;;5013979;28;20030;-86
2023/08/16 00:43:25;;;;;;;3.38;0.90;;;18.90;82.70;;;;;;5013341;28;20034;-86
2023/08/16 00:45:51;;;;;;;4.72;0.90;;;18.80;82.70;;;;;;5013456;28;20072;-86
2023/08/16 00:48:18;;;;;;;4.20;0.90;;;18.80;82.90;;;;;;5025650;28;20041;-86
2023/08/16 00:50:47;;;;;;;3.63;0.75;;;18.80;83.20;;;;;;5034575;28;20030;-86
2023/08/16 00:53:18;;;;;;;2.88;0.93;;;18.70;83.30;;;;;;5034499;28;20048;-85
2023/08/16 00:55:44;;;;;;;3.25;0.93;;;18.70;83.40;;;;;;5015671;28;20381;-86
2023/08/16 00:58:09;;;;;;;2.25;0.82;;;18.70;83.50;;;;;;5029037;28;20029;-86
2023/08/16 01:00:36;;;;;;;2.85;0.63;;;18.70;83.60;;;;;;5005319;28;20096;-86
2023/08/16 01:03:01;;;;;;;4.35;0.77;;;18.70;83.70;;;;;;5014569;28;20486;-86
2023/08/16 01:05:27;;;;;;;4.00;1.00;;;18.60;83.70;;;;;;4980334;28;20064;-87
2023/08/16 01:07:53;;;;;;;3.72;1.10;;;18.60;83.80;;;;;;4996982;28;20244;-78
2023/08/16 01:10:24;;;;;;;2.72;0.98;;;18.70;83.90;;;;;;4980657;28;20034;-79
2023/08/16 01:12:55;;;;;;;6.03;1.20;;;18.70;84.10;;;;;;4996643;28;20017;-78
2023/08/16 01:15:29;;;;;;;2.28;0.90;;;18.70;84.20;;;;;;4996711;28;20490;-79
2023/08/16 01:17:56;;;;;;;2.47;0.90;;;18.80;84.10;;;;;;4996693;28;20022;-79
2023/08/16 01:20:22;;;;;;;3.25;0.73;;;18.80;84.10;;;;;;4996915;28;20364;-79
2023/08/16 01:23:03;;;;;;;3.45;0.95;;;18.80;84.10;;;;;;4996487;28;20548;-79
2023/08/16 01:25:32;;;;;;;3.65;1.00;;;18.80;84.50;;;;;;5013338;28;20026;-78
2023/08/16 01:27:59;;;;;;;4.28;0.90;;;18.80;83.90;;;;;;5025974;28;20397;-79
2023/08/16 01:30:26;;;;;;;3.17;0.70;;;18.80;83.90;;;;;;5033829;28;20036;-79
2023/08/16 01:32:51;;;;;;;3.75;1.00;;;18.80;84.00;;;;;;5015712;28;20025;-78
2023/08/16 01:35:17;;;;;;;2.60;0.80;;;18.80;84.00;;;;;;5033765;28;20394;-79
2023/08/16 01:37:43;;;;;;;3.10;0.85;;;18.80;83.90;;;;;;5032522;28;20037;-78
2023/08/16 01:40:10;;;;;;;2.42;0.85;;;18.80;83.90;;;;;;5015990;28;20010;-78
2023/08/16 01:42:43;;;;;;;2.45;0.80;;;18.80;84.00;;;;;;5000275;28;20366;-78
2023/08/16 01:45:09;;;;;;;4.07;0.80;;;18.80;84.10;;;;;;5032466;28;20033;-78
2023/08/16 01:47:37;;;;;;;3.55;0.80;;;18.80;84.30;;;;;;5015719;28;20099;-79
2023/08/16 01:50:04;;;;;;;3.25;0.90;;;18.80;84.30;;;;;;5033625;28;20038;-79
2023/08/16 01:52:29;;;;;;;2.03;0.70;;;18.80;85.10;;;;;;5033482;28;20033;-78
2023/08/16 01:54:55;;;;;;;4.22;1.00;;;18.90;84.60;;;;;;5015102;28;20024;-78
2023/08/16 01:57:21;;;;;;;3.72;0.85;;;18.90;84.70;;;;;;5016025;28;20552;-78
2023/08/16 01:59:46;;;;;;;3.78;0.70;;;18.90;84.70;;;;;;5032201;28;20079;-78
2023/08/16 02:02:12;;;;;;;4.85;0.90;;;18.90;84.50;;;;;;5033329;28;20083;-78
2023/08/16 02:04:37;;;;;;;1.83;0.52;;;18.90;84.40;;;;;;5032161;28;20116;-78
2023/08/16 02:07:03;;;;;;;3.08;0.80;;;18.90;84.30;;;;;;5033319;28;20440;-79
2023/08/16 02:09:29;;;;;;;4.75;0.80;;;18.90;84.30;;;;;;5033254;28;20509;-78
2023/08/16 02:11:54;;;;;;;3.17;0.65;;;18.90;84.20;;;;;;5015827;28;20028;-79
2023/08/16 02:14:20;;;;;;;4.25;0.80;;;19.00;84.20;;;;;;5015657;28;20022;-79
2023/08/16 02:16:46;;;;;;;3.25;1.00;;;19.00;84.20;;;;;;5015654;28;20033;-79
2023/08/16 02:19:11;;;;;;;4.65;0.85;;;18.90;84.10;;;;;;5033209;28;20025;-79
2023/08/16 02:21:37;;;;;;;3.10;0.77;;;18.90;84.10;;;;;;5015551;28;20030;-78
2023/08/16 02:24:03;;;;;;;4.38;0.77;;;19.00;84.10;;;;;;5033298;28;20021;-78
2023/08/16 02:26:29;;;;;;;2.35;0.80;;;19.00;84.10;;;;;;4999206;28;20072;-79
2023/08/16 02:28:54;;;;;;;4.05;0.70;;;19.00;84.10;;;;;;4999435;28;20490;-79
2023/08/16 02:31:20;;;;;;;4.05;0.90;;;19.00;84.20;;;;;;5033116;28;20026;-79
2023/08/16 02:33:45;;;;;;;2.30;0.60;;;19.00;84.10;;;;;;5032400;28;20025;-78
2023/08/16 02:36:11;;;;;;;1.88;0.63;;;19.00;84.10;;;;;;5032953;28;20099;-79
2023/08/16 02:38:37;;;;;;;2.58;0.95;;;19.00;84.10;;;;;;5033507;28;20033;-79
2023/08/16 02:41:02;;;;;;;2.35;0.73;;;19.00;84.20;;;;;;5033129;28;20045;-78
2023/08/16 02:43:28;;;;;;;3.08;0.73;;;19.00;84.30;;;;;;4999002;28;20080;-79
2023/08/16 02:45:54;;;;;;;2.97;0.70;;;19.00;84.40;;;;;;5031645;28;20125;-78
2023/08/16 02:48:19;;;;;;;1.70;0.60;;;19.00;84.40;;;;;;5032700;28;20079;-79
2023/08/16 02:50:45;;;;;;;3.35;1.00;;;19.00;85.10;;;;;;5032891;28;20041;-79
2023/08/16 02:53:11;;;;;;;3.22;0.93;;;19.00;84.50;;;;;;5015349;28;20108;-78
2023/08/16 02:55:39;;;;;;;4.00;1.00;;;19.00;84.60;;;;;;4982735;28;20065;-78
2023/08/16 02:58:04;;;;;;;3.00;0.60;;;19.10;84.70;;;;;;5015554;28;20033;-78
2023/08/16 03:00:30;;;;;;;2.50;0.90;;;19.10;84.60;;;;;;5015171;28;20029;-79
2023/08/16 03:02:56;;;;;;;3.35;1.00;;;19.10;84.50;;;;;;5032923;28;20033;-78
2023/08/16 03:05:22;;;;;;;3.58;0.82;;;19.10;84.50;;;;;;5031704;28;20041;-78
2023/08/16 03:07:48;;;;;;;4.40;1.08;;;19.00;84.40;;;;;;5036346;28;20021;-79
2023/08/16 03:10:13;;;;;;;2.17;0.75;;;19.00;84.30;;;;;;5036803;28;20082;-78
2023/08/16 03:12:39;;;;;;;2.38;0.85;;;19.00;84.30;;;;;;5035077;28;20495;-79
2023/08/16 03:15:05;;;;;;;3.92;1.10;;;19.00;84.30;;;;;;5036325;28;20029;-79
2023/08/16 03:17:31;;;;;;;2.60;0.90;;;19.00;84.40;;;;;;5018626;28;20024;-78
2023/08/16 03:19:56;;;;;;;1.50;0.60;;;19.00;84.40;;;;;;5036229;28;20029;-78
2023/08/16 03:22:22;;;;;;;4.10;1.00;;;18.90;84.40;;;;;;5034978;28;20046;-79
2023/08/16 03:24:49;;;;;;;2.58;1.00;;;18.90;84.50;;;;;;5018451;28;20026;-78
2023/08/16 03:27:15;;;;;;;2.67;0.98;;;18.90;84.60;;;;;;5036101;28;20022;-78
2023/08/16 03:29:41;;;;;;;4.15;0.80;;;18.90;84.70;;;;;;5036094;28;20386;-78
2023/08/16 03:32:07;;;;;;;2.75;0.85;;;18.90;84.90;;;;;;5018277;28;20022;-79
2023/08/16 03:34:32;;;;;;;1.85;0.75;;;18.90;84.90;;;;;;5035989;28;20489;-79
2023/08/16 03:36:58;;;;;;;3.00;0.80;;;18.90;85.00;;;;;;5036158;28;20044;-79
2023/08/16 03:39:24;;;;;;;2.90;0.88;;;18.90;85.00;;;;;;5002212;28;20030;-79
2023/08/16 03:41:50;;;;;;;2.35;0.80;;;18.90;85.10;;;;;;5018146;28;20470;-79
2023/08/16 03:44:15;;;;;;;2.65;0.90;;;18.90;85.10;;;;;;5018155;28;20036;-79
2023/08/16 03:46:41;;;;;;;2.80;0.80;;;18.90;85.20;;;;;;5018037;28;20025;-78
2023/08/16 03:49:07;;;;;;;4.78;1.08;;;18.90;85.30;;;;;;5034186;28;20080;-79
2023/08/16 03:51:33;;;;;;;3.00;0.80;;;18.90;85.40;;;;;;5017978;28;20121;-79
2023/08/16 03:53:59;;;;;;;4.35;0.93;;;18.90;85.30;;;;;;5034371;28;20017;-79
2023/08/16 03:56:24;;;;;;;6.07;1.00;;;18.80;85.30;;;;;;5017884;28;20041;-78
2023/08/16 03:58:50;;;;;;;4.22;1.10;;;18.80;85.40;;;;;;5001606;28;20021;-78
2023/08/16 04:01:16;;;;;;;4.20;1.20;;;18.70;85.70;;;;;;5001706;28;20052;-78
2023/08/16 04:03:42;;;;;;;4.20;1.23;;;18.80;85.80;;;;;;5001575;28;20029;-78
2023/08/16 04:06:11;;;;;;;6.20;1.40;;;18.70;85.70;;;;;;5035580;28;20108;-79
2023/08/16 04:08:40;;;;;;;3.45;1.50;;;18.70;85.70;;;;;;5035349;28;20497;-79
2023/08/16 04:11:06;;;;;;;6.55;1.65;;;18.60;85.70;;;;;;5035410;28;20022;-79
2023/08/16 04:13:33;;;;;;;5.82;1.30;;;18.60;85.80;;;;;;5035432;28;20025;-79
2023/08/16 04:15:58;;;;;;;4.38;1.13;;;18.60;85.90;;;;;;5001011;28;20022;-78
2023/08/16 04:18:26;;;;;;;3.85;1.30;;;18.60;86.10;;;;;;5034913;28;20025;-79
2023/08/16 04:20:51;;;;;;;3.17;1.20;;;18.60;86.20;;;;;;5035127;28;20431;-79
2023/08/16 04:23:17;;;;;;;3.30;1.30;;;18.50;86.30;;;;;;5033852;28;20026;-78
2023/08/16 04:25:43;;;;;;;3.47;1.08;;;18.50;86.50;;;;;;5017336;28;20367;-78
2023/08/16 04:28:08;;;;;;;3.22;1.08;;;18.50;86.70;;;;;;5017292;28;20363;-78
2023/08/16 04:30:34;;;;;;;4.95;1.20;;;18.50;86.90;;;;;;5017397;28;20102;-78
2023/08/16 04:33:00;;;;;;;6.13;1.50;;;18.50;87.00;;;;;;5017530;28;20029;-78
2023/08/16 04:35:25;;;;;;;5.05;1.50;;;18.50;86.90;;;;;;5017255;28;20029;-78
2023/08/16 04:37:51;;;;;;;5.50;1.30;;;18.50;87.10;;;;;;5033454;28;20025;-78
2023/08/16 04:40:17;;;;;;;5.60;1.17;;;18.50;86.90;;;;;;5033601;28;20025;-78
2023/08/16 04:42:43;;;;;;;3.92;1.13;;;18.40;86.90;;;;;;5034049;28;20032;-78
2023/08/16 04:45:09;;;;;;;5.03;1.40;;;18.40;87.00;;;;;;5016442;28;20485;-78
2023/08/16 04:47:34;;;;;;;5.03;1.30;;;18.40;87.10;;;;;;5016884;28;20029;-78
2023/08/16 04:50:03;;;;;;;4.60;1.33;;;18.30;87.20;;;;;;5000595;28;20489;-79
2023/08/16 04:52:29;;;;;;;5.32;1.38;;;18.30;87.30;;;;;;5016806;28;20367;-79
2023/08/16 04:54:54;;;;;;;3.67;1.10;;;18.30;87.50;;;;;;5000614;28;20032;-79
2023/08/16 04:57:20;;;;;;;6.85;1.40;;;18.20;87.60;;;;;;5000541;28;20022;-79
2023/08/16 04:59:45;;;;;;;3.90;1.48;;;18.20;87.80;;;;;;5034491;28;20079;-79
2023/08/16 05:02:11;;;;;;;4.07;1.10;;;18.20;88.00;;;;;;5000294;28;20030;-79
2023/08/16 05:04:37;;;;;;;3.53;1.17;;;18.10;88.20;;;;;;5016892;28;20381;-78
2023/08/16 05:07:02;;;;;;;2.22;0.90;;;18.10;88.90;;;;;;5000254;28;20037;-78
2023/08/16 05:09:28;;;;;;;3.47;1.25;;;18.10;88.40;;;;;;5000022;28;20049;-79
2023/08/16 05:11:53;;;;;;;2.10;0.80;;;18.20;88.50;;;;;;5016439;28;20045;-79
2023/08/16 05:14:19;;;;;;;4.45;1.10;;;18.10;88.60;;;;;;4999992;28;20033;-79
2023/08/16 05:16:45;;;;;;;3.15;1.05;;;18.10;88.60;;;;;;5016469;28;20164;-86
2023/08/16 05:19:10;;;;;;;5.18;0.98;;;18.10;88.80;;;;;;5000009;28;20032;-86
2023/08/16 05:21:36;;;;;;;3.85;1.23;;;18.10;88.80;;;;;;5016524;28;20029;-85
2023/08/16 05:24:01;;;;;;;5.25;1.25;;;18.20;89.00;;;;;;5034375;28;20029;-79
2023/08/16 05:26:27;;;;;;;4.20;1.10;;;18.10;89.00;;;;;;5016255;28;20539;-79
2023/08/16 05:28:52;;;;;;;4.25;1.13;;;18.20;89.20;;;;;;5015424;28;20477;-85
2023/08/16 05:31:18;;;;;;;3.97;1.08;;;18.20;89.20;;;;;;5016237;28;20043;-78
2023/08/16 05:33:44;;;;;;;4.85;1.05;;;18.20;89.60;;;;;;5000220;28;20029;-87
2023/08/16 05:36:09;;;;;;;3.38;1.05;;;18.20;89.60;;;;;;5016292;28;20465;-86
2023/08/16 05:38:35;;;;;;;4.72;1.52;;;18.20;89.80;;;;;;5033976;28;20037;-78
2023/08/16 05:41:04;;;;;;;4.40;1.67;;;18.20;89.90;;;;;;5015863;28;20484;-87
2023/08/16 05:43:31;;;;;;;4.25;1.20;;;18.30;90.10;;;;;;5033786;28;20030;-86
2023/08/16 05:45:57;;;;;;;3.97;1.55;;;18.30;90.20;;;;;;5032546;28;20033;-86
2023/08/16 05:48:22;;;;;;;4.63;1.58;;;18.30;90.10;;;;;;5015988;28;20034;-86
2023/08/16 05:50:48;;;;;;;5.32;1.70;;;18.30;90.20;;;;;;4999427;28;20037;-86
2023/08/16 05:53:13;;;;;;;3.35;1.27;;;18.30;90.20;;;;;;5033803;28;20044;-87
2023/08/16 05:55:39;;;;;;;3.10;1.10;;;18.40;90.20;;;;;;5015998;28;20472;-78
2023/08/16 05:58:05;;;;;;;3.40;1.08;;;18.40;90.20;;;;;;4999568;28;20057;-87
2023/08/16 06:00:31;;;;;;;5.28;1.63;;;18.40;90.30;;;;;;5033460;28;20030;-87
2023/08/16 06:02:58;;;;;;;3.53;1.38;;;18.50;90.30;;;;;;5033516;28;20026;-86
2023/08/16 06:05:23;;;;;;;3.97;1.52;;;18.50;90.30;;;;;;5015768;28;20025;-87
2023/08/16 06:07:49;;;;;;;4.40;1.42;;;18.50;90.30;;;;;;5015831;28;20033;-86
2023/08/16 06:10:15;;;;;;;8.45;1.48;;;18.60;90.40;;;;;;5016328;28;20026;-86
2023/08/16 06:12:40;;;;;;;4.85;1.65;;;18.60;90.50;;;;;;5015626;28;20025;-88
2023/08/16 06:15:11;;;;;;;6.97;1.77;;;18.60;90.50;;;;;;5016031;28;20029;-88
2023/08/16 06:17:41;;;;;;;2.45;1.35;;;18.70;90.50;;;;;;5000086;28;20025;-86
2023/08/16 06:20:07;;;;;;;5.00;1.00;;;18.70;90.50;;;;;;5033145;28;20025;-87
2023/08/16 06:22:37;;;;;;;4.13;1.23;;;18.80;90.60;;;;;;5015643;28;20067;-88
2023/08/16 06:25:05;;;;;;;6.25;1.50;;;18.90;90.60;;;;;;5033570;28;20049;-87
2023/08/16 06:27:30;;;;;;;4.63;1.25;;;18.90;90.60;;;;;;5033180;28;20503;-87
2023/08/16 06:29:56;;;;;;;2.63;1.13;;;19.00;90.70;;;;;;5015738;28;20057;-87
2023/08/16 06:32:22;;;;;;;4.40;1.30;;;19.10;90.60;;;;;;5015605;28;20473;-79
2023/08/16 06:34:47;;;;;;;4.15;1.60;;;19.10;90.70;;;;;;4999028;28;20064;-79
2023/08/16 06:37:13;;;;;;;2.92;1.20;;;19.20;90.60;;;;;;4999043;28;20078;-87
2023/08/16 06:39:39;;;;;;;3.25;1.38;;;19.30;90.60;;;;;;5034349;28;20037;-86
2023/08/16 06:42:05;;;;;;;5.72;1.45;;;19.40;90.60;;;;;;5019278;28;20530;-86
2023/08/16 06:44:31;;;;;;;4.70;1.40;;;19.40;90.60;;;;;;5019664;28;20031;-87
2023/08/16 06:46:57;;;;;;;4.45;1.00;;;19.50;90.60;;;;;;5037317;28;20108;-88
2023/08/16 06:49:23;;;;;;;3.90;1.17;;;19.50;90.50;;;;;;5019380;28;20092;-79
2023/08/16 06:51:48;;;;;;;6.07;1.48;;;19.60;90.40;;;;;;5002827;28;20416;-80
2023/08/16 06:54:14;;;;;;;5.78;1.30;;;19.60;90.40;;;;;;5002782;28;20060;-87
2023/08/16 06:56:39;;;;;;;4.03;1.20;;;19.60;90.30;;;;;;5002882;28;20026;-79
2023/08/16 06:59:05;;;;;;;2.35;1.05;;;19.60;90.30;;;;;;5002687;28;20022;-87
2023/08/16 07:01:31;;;;;;;4.35;1.40;;;19.60;90.30;;;;;;5018951;28;20087;-79
2023/08/16 07:03:56;;;;;;;3.88;1.15;;;19.70;90.30;;;;;;5002392;28;20025;-87
2023/08/16 07:06:22;;;;;;;4.95;1.40;;;19.70;90.30;;;;;;5018738;28;20064;-80
2023/08/16 07:08:48;;;;;;;3.35;0.95;;;19.80;90.20;;;;;;5002582;28;20064;-79
2023/08/16 07:11:13;;;;;;;5.32;1.27;;;19.80;90.20;;;;;;5018902;28;20034;-87
2023/08/16 07:13:39;;;;;;;5.22;1.15;;;19.90;90.20;;;;;;5019319;28;20030;-87
2023/08/16 07:16:05;;;;;;;2.15;0.90;;;19.90;90.20;;;;;;5018894;28;20492;-80
2023/08/16 07:18:30;;;;;;;5.82;1.40;;;20.00;90.10;;;;;;5002517;28;20390;-87
2023/08/16 07:20:56;;;;;;;4.05;1.17;;;20.00;90.00;;;;;;5018833;28;20030;-87
2023/08/16 07:23:22;;;;;;;4.03;0.82;;;20.10;90.00;;;;;;5002562;28;20112;-80
2023/08/16 07:25:54;;;;;;;2.95;1.00;;;20.10;89.80;;;;;;5018573;28;20438;-80
2023/08/16 07:28:19;;;;;;;1.95;0.60;;;20.20;89.80;;;;;;5018369;28;20034;-87
2023/08/16 07:30:45;;;;;;;2.38;1.00;;;20.20;89.70;;;;;;5018562;28;20028;-87
2023/08/16 07:33:11;;;;;;;2.92;0.93;;;20.30;89.40;;;;;;5018698;28;20030;-87
2023/08/16 07:35:36;;;;;;;4.97;0.90;;;20.30;89.20;;;;;;5018506;28;20026;-79
2023/08/16 07:38:03;;;;;;;2.60;0.85;;;20.30;89.00;;;;;;5018061;28;20029;-79
2023/08/16 07:40:29;;;;;;;6.28;1.08;;;20.20;88.70;;;;;;5018396;28;20080;-88
2023/08/16 07:42:54;;;;;;;3.58;0.80;;;20.20;88.40;;;;;;5002036;28;20026;-87
2023/08/16 07:45:21;;;;;;;3.45;1.13;;;20.20;88.30;;;;;;5002082;28;20469;-86
2023/08/16 07:47:47;;;;;;;3.90;0.90;;;20.20;88.30;;;;;;5018621;28;20053;-86
2023/08/16 07:50:12;;;;;;;4.00;1.20;;;20.20;88.30;;;;;;5018139;28;20072;-80
2023/08/16 07:52:38;;;;;;;4.47;0.88;;;20.20;88.10;;;;;;5017275;28;20096;-80
2023/08/16 07:55:04;;;;;;;2.53;0.88;;;20.20;88.00;;;;;;5018050;28;20033;-79
2023/08/16 07:57:31;;;;;;;4.57;0.80;;;20.20;87.90;;;;;;5018163;28;20056;-87
2023/08/16 07:59:56;;;;;;;3.33;0.95;;;20.30;87.90;;;;;;5018378;28;20049;-87
2023/08/16 08:02:22;;;;;;;3.15;0.68;;;20.20;87.70;;;;;;5035744;28;20096;-87
2023/08/16 08:04:48;;;;;;;2.38;0.60;;;20.30;87.70;;;;;;5017967;28;20053;-79
2023/08/16 08:07:14;;;;;;;3.88;1.20;;;20.30;87.60;;;;;;5018134;28;20033;-86
2023/08/16 08:09:39;;;;;;;4.13;1.05;;;20.30;87.40;;;;;;5001418;28;20041;-87
2023/08/16 08:12:06;;;;;;;5.05;0.95;;;20.40;87.30;;;;;;5017977;28;20068;-86
2023/08/16 08:14:32;;;;;;;6.72;0.75;;;20.50;87.20;;;;;;5001533;28;20029;-87
2023/08/16 08:16:58;;;;;;;1.67;0.55;;;20.50;87.10;;;;;;5001242;28;20064;-87
2023/08/16 08:19:23;;;;;;;3.17;0.75;;;20.50;86.90;;;;;;5017651;28;20061;-88
2023/08/16 08:21:49;;;;;;;2.67;0.82;;;20.60;86.80;;;;;;5017709;28;20536;-80
2023/08/16 08:24:15;;;;;;;3.90;0.80;;;20.70;86.60;;;;;;5017398;28;20029;-79
2023/08/16 08:26:41;;;;;;;3.95;0.80;;;20.60;86.30;;;;;;5001076;28;20029;-80
2023/08/16 08:29:06;;;;;;;3.75;0.73;;;20.70;86.30;;;;;;5034940;28;20473;-80
2023/08/16 08:31:33;;;;;;;3.95;0.88;;;20.70;86.10;;;;;;5000751;28;20469;-79
2023/08/16 08:33:59;;;;;;;5.68;1.00;;;20.70;85.90;;;;;;5017369;28;20497;-79
2023/08/16 08:36:25;;;;;;;2.13;0.77;;;20.70;85.90;;;;;;5000739;28;20033;-88
2023/08/16 08:38:51;;;;;;;3.15;0.70;;;20.70;85.90;;;;;;5000918;28;20041;-87
2023/08/16 08:41:19;;;;;;;4.47;0.95;;;20.80;86.00;;;;;;5000841;28;20472;-86
2023/08/16 08:43:45;;;;;;;2.00;0.68;;;20.90;86.00;;;;;;5017024;28;20022;-87
2023/08/16 08:46:11;;;;;;;3.13;0.65;;;20.90;85.80;;;;;;5017101;28;20042;-87
2023/08/16 08:48:37;;;;;;;3.60;0.65;;;21.00;85.80;;;;;;5016782;28;20052;-87
2023/08/16 08:51:03;;;;;;;2.55;0.88;;;21.10;85.80;;;;;;5016754;28;20434;-87
2023/08/16 08:53:29;;;;;;;2.28;0.70;;;21.10;85.60;;;;;;5016806;28;20026;-87
2023/08/16 08:55:56;;;;;;;1.95;0.60;;;21.20;85.70;;;;;;5017186;28;20100;-87
2023/08/16 08:58:23;;;;;;;2.42;0.70;;;21.30;85.50;;;;;;5000524;28;20485;-87
2023/08/16 09:00:49;;;;;;;3.53;0.65;;;21.40;85.40;;;;;;5016872;28;20038;-88
2023/08/16 09:03:21;;;;;;;3.05;0.85;;;21.40;85.30;;;;;;5000213;28;20519;-85
2023/08/16 09:05:50;;;;;;;4.50;0.80;;;21.50;85.30;;;;;;5016369;28;20021;-86
2023/08/16 09:08:16;;;;;;;3.85;0.90;;;21.50;85.20;;;;;;5016371;28;20021;-88
2023/08/16 09:10:43;;;;;;;2.92;0.80;;;21.60;85.00;;;;;;5016451;28;20371;-80
2023/08/16 09:13:12;;;;;;;2.67;0.68;;;21.80;84.90;;;;;;5000163;28;20108;-87
2023/08/16 09:15:39;;;;;;;3.47;0.80;;;21.80;84.60;;;;;;5016491;28;20461;-88
2023/08/16 09:18:10;;;;;;;3.65;1.20;;;21.90;84.70;;;;;;5000053;28;20032;-86
2023/08/16 09:20:36;;;;;;;2.35;0.80;;;22.00;84.70;;;;;;5016202;28;20469;-88
2023/08/16 09:23:02;;;;;;;3.65;0.95;;;22.10;84.50;;;;;;5034084;28;20417;-87
2023/08/16 09:25:29;;;;;;;3.60;1.08;;;22.10;84.20;;;;;;5033922;28;20080;-89
2023/08/16 09:27:55;;;;;;;5.40;1.02;;;22.20;84.00;;;;;;5016126;28;20117;-87
2023/08/16 09:30:23;;;;;;;3.13;0.70;;;22.30;83.90;;;;;;5016429;28;20104;-86
2023/08/16 09:32:51;;;;;;;4.28;0.77;;;22.30;83.60;;;;;;5016564;28;20416;-87
2023/08/16 09:35:17;;;;;;;2.72;0.75;;;22.40;83.30;;;;;;5016110;28;20017;-89
2023/08/16 09:37:44;;;;;;;3.75;0.90;;;22.40;82.90;;;;;;5033655;28;20112;-86
2023/08/16 09:40:15;;;;;;;2.50;0.70;;;22.60;82.80;;;;;;4999683;28;20029;-87
2023/08/16 09:42:41;;;;;;;2.72;0.65;;;22.70;82.50;;;;;;5033683;28;20026;-80
2023/08/16 09:45:07;;;;;;;2.85;0.60;;;22.70;82.20;;;;;;5033429;28;20079;-80
2023/08/16 09:47:32;;;;;;;2.38;0.73;;;22.80;81.80;;;;;;4999352;28;20041;-80
2023/08/16 09:50:06;;;;;;;4.57;0.90;;;22.90;81.50;;;;;;5015511;28;20087;-80
2023/08/16 09:52:33;;;;;;;3.15;0.70;;;23.00;81.10;;;;;;5015952;28;20025;-87
2023/08/16 09:54:59;;;;;;;2.63;0.70;;;23.10;80.50;;;;;;5016169;28;20032;-87
2023/08/16 09:57:25;;;;;;;5.93;0.85;;;23.20;80.40;;;;;;5016092;28;20100;-87
2023/08/16 09:59:51;;;;;;;3.08;0.85;;;23.30;80.10;;;;;;4999346;28;20033;-86
2023/08/16 10:02:20;;;;;;;3.08;0.60;;;23.40;79.80;;;;;;4999358;28;20025;-87
2023/08/16 10:04:46;;;;;;;1.90;0.70;;;23.50;79.50;;;;;;5015862;28;20477;-86
2023/08/16 10:07:12;;;;;;;5.78;0.57;;;23.70;79.40;;;;;;5015721;28;20109;-80
2023/08/16 10:09:41;;;;;;;4.03;0.50;;;23.80;79.30;;;;;;4999180;28;20067;-80
2023/08/16 10:12:09;;;;;;;2.95;0.60;;;23.90;78.90;;;;;;4999813;28;20029;-80
2023/08/16 10:14:37;;;;;;;1.60;0.50;;;24.00;78.50;;;;;;5017403;28;20043;-80
2023/08/16 10:17:06;;;;;;;3.17;0.50;;;24.20;78.00;;;;;;5005964;28;20083;-80
2023/08/16 10:19:33;;;;;;;3.30;0.60;;;24.40;77.40;;;;;;5039830;28;20496;-80
2023/08/16 10:22:00;;;;;;;3.63;0.73;;;24.60;77.00;;;;;;5022324;28;20021;-80
2023/08/16 10:24:32;;;;;;;1.95;0.50;;;24.80;76.50;;;;;;4996240;28;20108;-80
2023/08/16 10:27:00;;;;;;;2.45;0.50;;;25.00;75.60;;;;;;5002054;28;20026;-80
2023/08/16 10:29:26;;;;;;;3.08;0.65;;;25.20;74.90;;;;;;5018076;28;20029;-80
2023/08/16 10:31:53;;;;;;;1.35;0.45;;;25.50;74.40;;;;;;5023043;28;20066;-80
2023/08/16 10:34:21;;;;;;;3.92;0.50;;;25.70;73.20;;;;;;5002231;28;20064;-87
2023/08/16 10:36:47;;;;;;;2.38;0.45;;;26.20;73.00;;;;;;5039365;28;20033;-89
2023/08/16 10:39:22;;;;;;;2.33;0.60;;;26.60;72.60;;;;;;5022078;28;20055;-88
2023/08/16 10:41:50;;;;;;;3.50;0.40;;;27.20;72.70;;;;;;5039697;28;20428;-88
2023/08/16 10:44:25;;;;;;;1.85;0.50;;;27.60;72.10;;;;;;5022526;28;20025;-89
2023/08/16 10:46:52;;;;;;;3.45;0.50;;;28.00;71.20;;;;;;5022247;28;20053;-90
2023/08/16 10:49:21;;;;;;;2.22;0.40;;;28.50;70.80;;;;;;5021903;28;20056;-89
2023/08/16 10:51:54;;;;;;;2.28;0.45;;;28.90;69.10;;;;;;5039827;28;20547;-88
2023/08/16 10:54:32;;;;;;;2.53;0.50;;;29.40;68.00;;;;;;5022502;28;20033;-81
2023/08/16 10:57:02;;;;;;;2.38;0.52;;;29.80;66.80;;;;;;5021794;28;20112;-82
2023/08/16 10:59:49;;;;;;;1.70;0.45;;;30.40;66.50;;;;;;5038117;28;20474;-82
2023/08/16 11:02:15;;;;;;;1.92;0.50;;;31.00;64.60;;;;;;5005663;28;20408;-88
2023/08/16 11:04:46;;;;;;;2.60;0.60;;;31.40;64.30;;;;;;5021885;28;20030;-89
2023/08/16 11:07:12;;;;;;;3.47;0.50;;;31.50;62.50;;;;;;5022402;28;20095;-82
2023/08/16 11:09:39;;;;;;;2.17;0.45;;;31.40;61.20;;;;;;5021612;28;20171;-88
2023/08/16 11:12:06;;;;;;;1.55;0.40;;;31.20;60.40;;;;;;5038458;28;20116;-89
2023/08/16 11:14:33;;;;;;;2.17;0.60;;;31.30;60.50;;;;;;5040064;28;20060;-89
2023/08/16 11:16:59;;;;;;;2.70;0.47;;;31.90;59.80;;;;;;5039392;28;20033;-90
2023/08/16 11:19:25;;;;;;;1.50;0.47;;;32.50;59.40;;;;;;5021674;28;20163;-90
2023/08/16 11:21:51;;;;;;;2.05;0.70;;;32.90;58.20;;;;;;5020318;28;20030;-88
2023/08/16 11:24:18;;;;;;;2.53;0.60;;;33.10;56.90;;;;;;5039434;28;20112;-89
2023/08/16 11:26:43;;;;;;;1.80;0.50;;;33.10;55.30;;;;;;5035893;28;20087;-88
2023/08/16 11:29:09;;;;;;;1.60;0.60;;;32.90;54.00;;;;;;5036134;28;20520;-88
2023/08/16 11:31:36;;;;;;;3.15;0.52;;;32.80;53.90;;;;;;5002032;28;20033;-81
2023/08/16 11:34:07;;;;;;;2.58;0.50;;;32.80;53.90;;;;;;5018630;28;20104;-88
2023/08/16 11:36:36;;;;;;;1.27;0.50;;;33.00;53.40;;;;;;5034839;28;20036;-88
2023/08/16 11:39:04;;;;;;;2.72;0.50;;;33.20;51.90;;;;;;5018201;28;20026;-81
2023/08/16 11:41:30;;;;;;;4.32;0.60;;;33.70;51.50;;;;;;5018639;28;20075;-82
2023/08/16 11:43:59;;;;;;;1.08;0.40;;;33.80;51.00;;;;;;5035823;28;20021;-82
2023/08/16 11:46:25;;;;;;;1.85;0.50;;;34.10;50.70;;;;;;5001886;28;20060;-83
2023/08/16 11:48:50;;;;;;;1.90;0.35;;;34.60;51.00;;;;;;5017747;28;20430;-82
2023/08/16 11:51:17;;;;;;;3.50;0.85;;;34.90;50.80;;;;;;5035088;28;20493;-89
2023/08/16 11:53:43;;;;;;;2.17;0.63;;;35.00;49.90;;;;;;5034437;28;20060;-90
2023/08/16 11:56:09;;;;;;;1.48;0.50;;;35.20;50.30;;;;;;5001682;28;20021;-88
2023/08/16 11:58:46;;;;;;;1.63;0.47;;;35.40;49.40;;;;;;5018254;28;20087;-89
2023/08/16 12:01:14;;;;;;;2.17;0.50;;;35.30;48.70;;;;;;5034681;28;20548;-89
2023/08/16 12:03:42;;;;;;;2.15;0.60;;;35.20;48.50;;;;;;5034501;28;20363;-89
2023/08/16 12:06:11;;;;;;;1.70;0.50;;;35.40;48.50;;;;;;5034359;28;20417;-83
2023/08/16 12:08:48;;;;;;;1.73;0.60;;;35.80;48.30;;;;;;5033913;28;20036;-82
2023/08/16 12:11:13;;;;;;;1.67;0.60;;;36.40;47.60;;;;;;5034216;28;20025;-90
2023/08/16 12:13:39;;;;;;;1.83;0.50;;;37.00;47.60;;;;;;5017972;28;20604;-90
2023/08/16 12:16:05;;;;;;;2.28;0.52;;;37.30;46.30;;;;;;5034096;28;20030;-89
2023/08/16 12:18:31;;;;;;;2.47;0.40;;;37.20;45.30;;;;;;5017757;28;20029;-90
2023/08/16 12:20:59;;;;;;;1.90;0.40;;;36.90;45.00;;;;;;5034011;28;20040;-88
2023/08/16 12:23:24;;;;;;;3.08;0.50;;;36.50;45.30;;;;;;5035282;28;20087;-89
2023/08/16 12:25:50;;;;;;;0.75;0.30;;;36.10;45.40;;;;;;5033963;28;20041;-90
2023/08/16 12:28:16;;;;;;;1.75;0.38;;;35.70;45.80;;;;;;5034968;28;20117;-86
2023/08/16 12:30:41;;;;;;;1.48;0.40;;;35.20;46.10;;;;;;4984620;28;20383;-82
2023/08/16 12:33:07;;;;;;;2.13;0.40;;;34.90;46.20;;;;;;5033567;28;20029;-82
2023/08/16 12:35:34;;;;;;;1.20;0.32;;;34.70;46.50;;;;;;5017193;28;20534;-89
2023/08/16 12:38:02;;;;;;;1.65;0.47;;;34.40;46.70;;;;;;5034539;28;20021;-83
2023/08/16 12:40:29;;;;;;;1.38;0.50;;;34.40;46.80;;;;;;5001525;28;20386;-82
2023/08/16 12:42:57;;;;;;;2.42;0.60;;;34.50;46.90;;;;;;5001094;28;20539;-89
2023/08/16 12:45:22;;;;;;;1.65;0.50;;;34.80;47.00;;;;;;5032201;28;20026;-89